Impacts METAR Board
IDs:

KILE - Killeen/Skylark Fld, TX, US

Updated at: 0200 UTC 15 Aug 2020
Potential Impact None Slight Moderate High
Time 14/14Z 14/15Z 14/16Z 14/17Z 14/18Z 14/19Z 14/20Z 14/21Z 14/22Z 14/23Z 15/00Z 15/01Z 15/02Z
Temp84 88 93 97 99 101 104 106 106 105 102 99 95
Dewpt73 72 69 68 65 64 61 62 60 59 61 59 59
Altim29.95 29.95 29.96 29.95 29.92 29.90 29.88 29.85 29.83 29.82 29.82 29.83 29.84
VIS10 10 10 10 10 10 10 10 10 10 10 10 10
CIG-- -- -- -- -- -- -- -- -- -- -- -- --
Cover--------------------------
FltCatVFRVFRVFRVFRVFRVFRVFRVFRVFRVFRVFRVFRVFR
WX--------------------------
WDir210220190210200190220180150180170160160
WSpd12 8 10 10 4 9 8 10 9 8 13 10 7
WGst-- -- -- 16 -- -- 24 15 -- 16 -- -- --
Raw hourly METARs
KILE 141356Z AUTO 21012KT 10SM 29/23 A2995 RMK AO2 SLP126 T02890228 $
KILE 141456Z AUTO 22008KT 10SM 31/22 A2995 RMK AO2 SLP129 T03110222 51008 $
KILE 141556Z AUTO 19010KT 10SM 34/21 A2996 RMK AO2 SLP130 T03390206 $
KILE 141656Z AUTO 21010G16KT 10SM 36/20 A2995 RMK AO2 SLP125 T03610200 $
KILE 141756Z AUTO 20004KT 10SM 37/18 A2992 RMK AO2 SLP116 T03720183 10372 20256 58010 $
KILE 141856Z AUTO 19009KT 10SM 38/18 A2990 RMK AO2 SLP110 T03830178 $
KILE 141956Z AUTO 22008G24KT 190V250 10SM 40/16 A2988 RMK AO2 SLP101 T04000161 $
KILE 142056Z AUTO 18010G15KT 10SM 41/17 A2985 RMK AO2 SLP093 T04110167 58023 $
KILE 142156Z AUTO 15009KT 10SM 41/16 A2983 RMK AO2 SLP086 T04110156 $
KILE 142256Z AUTO 18008G16KT 10SM 41/15 A2982 RMK AO2 SLP083 T04060150 $
KILE 142356Z AUTO 17013KT 10SM 39/16 A2982 RMK AO2 SLP082 T03890161 10411 20367 56013 $
KILE 150056Z AUTO 16010KT 10SM 37/15 A2983 RMK AO2 SLP087 T03720150 $
KILE 150156Z AUTO 16007KT 10SM 35/15 A2984 RMK AO2 SLP090 T03500150 $